sensor_id;sensor_type;location;lat;lon;timestamp;P1;durP1;ratioP1;P2;durP2;ratioP2
51566;SDS011;37657;53.182;5.638;2023-09-19T00:00:30;4.72;;;2.58;;
51566;SDS011;37657;53.182;5.638;2023-09-19T00:02:57;20.55;;;3.47;;
51566;SDS011;37657;53.182;5.638;2023-09-19T00:05:24;7.47;;;2.83;;
51566;SDS011;37657;53.182;5.638;2023-09-19T00:07:53;8.75;;;3.13;;
51566;SDS011;37657;53.182;5.638;2023-09-19T00:10:21;12.15;;;3.03;;
51566;SDS011;37657;53.182;5.638;2023-09-19T00:12:49;9.73;;;2.65;;
51566;SDS011;37657;53.182;5.638;2023-09-19T00:15:20;6.75;;;2.50;;
51566;SDS011;37657;53.182;5.638;2023-09-19T00:17:47;9.20;;;3.45;;
51566;SDS011;37657;53.182;5.638;2023-09-19T00:20:12;12.65;;;3.72;;
51566;SDS011;37657;53.182;5.638;2023-09-19T00:22:42;9.38;;;2.60;;
51566;SDS011;37657;53.182;5.638;2023-09-19T00:25:08;5.82;;;2.67;;
51566;SDS011;37657;53.182;5.638;2023-09-19T00:27:35;6.90;;;2.72;;
51566;SDS011;37657;53.182;5.638;2023-09-19T00:30:05;5.88;;;3.05;;
51566;SDS011;37657;53.182;5.638;2023-09-19T00:32:34;8.80;;;2.53;;
51566;SDS011;37657;53.182;5.638;2023-09-19T00:34:59;6.07;;;2.05;;
51566;SDS011;37657;53.182;5.638;2023-09-19T00:37:25;4.03;;;1.90;;
51566;SDS011;37657;53.182;5.638;2023-09-19T00:39:51;11.43;;;2.80;;
51566;SDS011;37657;53.182;5.638;2023-09-19T00:42:20;7.43;;;2.95;;
51566;SDS011;37657;53.182;5.638;2023-09-19T00:44:46;9.98;;;2.67;;
51566;SDS011;37657;53.182;5.638;2023-09-19T00:47:16;3.25;;;2.03;;
51566;SDS011;37657;53.182;5.638;2023-09-19T00:49:44;4.35;;;2.15;;
51566;SDS011;37657;53.182;5.638;2023-09-19T00:52:15;3.92;;;2.28;;
51566;SDS011;37657;53.182;5.638;2023-09-19T00:54:44;6.10;;;2.22;;
51566;SDS011;37657;53.182;5.638;2023-09-19T00:57:11;6.93;;;2.75;;
51566;SDS011;37657;53.182;5.638;2023-09-19T00:59:37;6.57;;;1.90;;
51566;SDS011;37657;53.182;5.638;2023-09-19T01:02:02;7.45;;;3.00;;
51566;SDS011;37657;53.182;5.638;2023-09-19T01:04:29;8.90;;;3.03;;
51566;SDS011;37657;53.182;5.638;2023-09-19T01:06:55;7.43;;;2.20;;
51566;SDS011;37657;53.182;5.638;2023-09-19T01:09:22;5.85;;;2.65;;
51566;SDS011;37657;53.182;5.638;2023-09-19T01:11:48;4.75;;;2.38;;
51566;SDS011;37657;53.182;5.638;2023-09-19T01:30:11;5.60;;;2.10;;
51566;SDS011;37657;53.182;5.638;2023-09-19T01:32:40;6.65;;;2.20;;
51566;SDS011;37657;53.182;5.638;2023-09-19T01:35:07;5.97;;;2.42;;
51566;SDS011;37657;53.182;5.638;2023-09-19T01:37:37;5.40;;;2.95;;
51566;SDS011;37657;53.182;5.638;2023-09-19T01:40:06;5.55;;;3.20;;
51566;SDS011;37657;53.182;5.638;2023-09-19T01:45:35;6.47;;;2.38;;
51566;SDS011;37657;53.182;5.638;2023-09-19T01:48:35;6.75;;;2.08;;
51566;SDS011;37657;53.182;5.638;2023-09-19T01:51:14;7.88;;;3.58;;
51566;SDS011;37657;53.182;5.638;2023-09-19T01:53:51;5.07;;;2.10;;
51566;SDS011;37657;53.182;5.638;2023-09-19T01:56:31;4.35;;;2.22;;
51566;SDS011;37657;53.182;5.638;2023-09-19T01:59:09;8.20;;;1.90;;
51566;SDS011;37657;53.182;5.638;2023-09-19T02:01:38;6.85;;;3.10;;
51566;SDS011;37657;53.182;5.638;2023-09-19T02:04:05;7.53;;;2.30;;
51566;SDS011;37657;53.182;5.638;2023-09-19T02:06:32;4.63;;;2.10;;
51566;SDS011;37657;53.182;5.638;2023-09-19T02:08:59;4.45;;;1.98;;
51566;SDS011;37657;53.182;5.638;2023-09-19T02:11:25;10.77;;;3.50;;
51566;SDS011;37657;53.182;5.638;2023-09-19T02:13:51;5.43;;;2.58;;
51566;SDS011;37657;53.182;5.638;2023-09-19T02:16:19;5.78;;;1.88;;
51566;SDS011;37657;53.182;5.638;2023-09-19T02:18:46;4.18;;;2.15;;
51566;SDS011;37657;53.182;5.638;2023-09-19T02:21:14;4.70;;;2.15;;
51566;SDS011;37657;53.182;5.638;2023-09-19T02:23:40;5.50;;;2.55;;
51566;SDS011;37657;53.182;5.638;2023-09-19T02:26:06;10.55;;;3.15;;
51566;SDS011;37657;53.182;5.638;2023-09-19T02:28:32;5.32;;;2.47;;
51566;SDS011;37657;53.182;5.638;2023-09-19T02:30:58;6.18;;;2.25;;
51566;SDS011;37657;53.182;5.638;2023-09-19T02:33:24;4.35;;;2.15;;
51566;SDS011;37657;53.182;5.638;2023-09-19T02:35:49;3.10;;;1.60;;
51566;SDS011;37657;53.182;5.638;2023-09-19T02:38:22;5.72;;;3.38;;
51566;SDS011;37657;53.182;5.638;2023-09-19T02:40:49;6.15;;;3.33;;
51566;SDS011;37657;53.182;5.638;2023-09-19T02:43:16;4.03;;;2.53;;
51566;SDS011;37657;53.182;5.638;2023-09-19T02:45:42;4.57;;;1.90;;
51566;SDS011;37657;53.182;5.638;2023-09-19T02:48:07;4.55;;;2.35;;
51566;SDS011;37657;53.182;5.638;2023-09-19T02:50:33;6.95;;;2.70;;
51566;SDS011;37657;53.182;5.638;2023-09-19T02:52:59;8.75;;;2.70;;
51566;SDS011;37657;53.182;5.638;2023-09-19T02:55:24;3.28;;;1.95;;
51566;SDS011;37657;53.182;5.638;2023-09-19T02:57:53;6.32;;;2.53;;
51566;SDS011;37657;53.182;5.638;2023-09-19T03:00:22;6.50;;;2.22;;
51566;SDS011;37657;53.182;5.638;2023-09-19T03:02:49;7.00;;;2.55;;
51566;SDS011;37657;53.182;5.638;2023-09-19T03:05:22;5.43;;;2.22;;
51566;SDS011;37657;53.182;5.638;2023-09-19T03:07:48;7.28;;;2.53;;
51566;SDS011;37657;53.182;5.638;2023-09-19T03:10:18;14.85;;;3.42;;
51566;SDS011;37657;53.182;5.638;2023-09-19T03:12:45;4.45;;;2.75;;
51566;SDS011;37657;53.182;5.638;2023-09-19T03:15:11;7.35;;;2.67;;
51566;SDS011;37657;53.182;5.638;2023-09-19T03:17:37;3.97;;;1.90;;
51566;SDS011;37657;53.182;5.638;2023-09-19T03:20:03;8.02;;;3.00;;
51566;SDS011;37657;53.182;5.638;2023-09-19T03:22:33;8.23;;;2.92;;
51566;SDS011;37657;53.182;5.638;2023-09-19T03:24:59;4.97;;;2.42;;
51566;SDS011;37657;53.182;5.638;2023-09-19T03:27:25;5.72;;;2.17;;
51566;SDS011;37657;53.182;5.638;2023-09-19T03:29:52;4.70;;;1.83;;
51566;SDS011;37657;53.182;5.638;2023-09-19T03:32:18;7.25;;;2.17;;
51566;SDS011;37657;53.182;5.638;2023-09-19T03:34:44;5.47;;;2.60;;
51566;SDS011;37657;53.182;5.638;2023-09-19T03:37:09;4.65;;;2.33;;
51566;SDS011;37657;53.182;5.638;2023-09-19T03:39:35;4.43;;;1.70;;
51566;SDS011;37657;53.182;5.638;2023-09-19T03:42:01;5.47;;;2.30;;
51566;SDS011;37657;53.182;5.638;2023-09-19T03:44:29;7.97;;;2.80;;
51566;SDS011;37657;53.182;5.638;2023-09-19T03:46:55;6.00;;;3.03;;
51566;SDS011;37657;53.182;5.638;2023-09-19T03:49:21;5.20;;;2.63;;
51566;SDS011;37657;53.182;5.638;2023-09-19T03:51:47;7.22;;;2.50;;
51566;SDS011;37657;53.182;5.638;2023-09-19T03:54:12;9.43;;;3.45;;
51566;SDS011;37657;53.182;5.638;2023-09-19T03:56:38;4.35;;;2.28;;
51566;SDS011;37657;53.182;5.638;2023-09-19T03:59:03;5.80;;;2.38;;
51566;SDS011;37657;53.182;5.638;2023-09-19T04:01:30;4.45;;;2.38;;
51566;SDS011;37657;53.182;5.638;2023-09-19T04:03:58;5.15;;;2.13;;
51566;SDS011;37657;53.182;5.638;2023-09-19T04:06:24;3.83;;;1.90;;
51566;SDS011;37657;53.182;5.638;2023-09-19T04:08:49;7.30;;;3.08;;
51566;SDS011;37657;53.182;5.638;2023-09-19T04:11:15;4.78;;;2.53;;
51566;SDS011;37657;53.182;5.638;2023-09-19T04:13:41;5.35;;;2.00;;
51566;SDS011;37657;53.182;5.638;2023-09-19T04:16:07;5.05;;;2.35;;
51566;SDS011;37657;53.182;5.638;2023-09-19T04:18:32;4.97;;;2.05;;
51566;SDS011;37657;53.182;5.638;2023-09-19T04:21:02;11.07;;;3.60;;
51566;SDS011;37657;53.182;5.638;2023-09-19T04:23:29;3.30;;;1.65;;
51566;SDS011;37657;53.182;5.638;2023-09-19T04:25:54;5.15;;;2.03;;
51566;SDS011;37657;53.182;5.638;2023-09-19T04:28:20;7.35;;;2.90;;
51566;SDS011;37657;53.182;5.638;2023-09-19T04:30:45;5.45;;;2.38;;
51566;SDS011;37657;53.182;5.638;2023-09-19T04:33:11;12.63;;;3.22;;
51566;SDS011;37657;53.182;5.638;2023-09-19T04:35:39;5.38;;;2.22;;
51566;SDS011;37657;53.182;5.638;2023-09-19T04:38:07;7.97;;;3.40;;
51566;SDS011;37657;53.182;5.638;2023-09-19T04:40:33;5.88;;;2.45;;
51566;SDS011;37657;53.182;5.638;2023-09-19T04:42:59;9.38;;;2.72;;
51566;SDS011;37657;53.182;5.638;2023-09-19T04:45:25;4.80;;;2.15;;
51566;SDS011;37657;53.182;5.638;2023-09-19T04:47:52;5.80;;;2.58;;
51566;SDS011;37657;53.182;5.638;2023-09-19T04:50:18;5.40;;;2.88;;
51566;SDS011;37657;53.182;5.638;2023-09-19T04:52:46;6.88;;;2.05;;
51566;SDS011;37657;53.182;5.638;2023-09-19T04:55:19;17.48;;;2.60;;
51566;SDS011;37657;53.182;5.638;2023-09-19T04:57:49;5.10;;;2.35;;
51566;SDS011;37657;53.182;5.638;2023-09-19T05:00:19;5.20;;;2.47;;
51566;SDS011;37657;53.182;5.638;2023-09-19T05:02:49;7.85;;;2.83;;
51566;SDS011;37657;53.182;5.638;2023-09-19T05:05:16;11.02;;;3.00;;
51566;SDS011;37657;53.182;5.638;2023-09-19T05:07:42;4.78;;;3.08;;
51566;SDS011;37657;53.182;5.638;2023-09-19T05:10:11;5.95;;;2.67;;
51566;SDS011;37657;53.182;5.638;2023-09-19T05:12:37;9.85;;;3.33;;
51566;SDS011;37657;53.182;5.638;2023-09-19T05:15:03;5.43;;;2.45;;
51566;SDS011;37657;53.182;5.638;2023-09-19T05:17:31;6.47;;;2.38;;
51566;SDS011;37657;53.182;5.638;2023-09-19T05:19:58;9.70;;;3.25;;
51566;SDS011;37657;53.182;5.638;2023-09-19T05:22:23;7.70;;;2.38;;
51566;SDS011;37657;53.182;5.638;2023-09-19T05:24:52;7.05;;;2.58;;
51566;SDS011;37657;53.182;5.638;2023-09-19T05:27:18;7.65;;;2.75;;
51566;SDS011;37657;53.182;5.638;2023-09-19T05:29:46;5.10;;;2.80;;
51566;SDS011;37657;53.182;5.638;2023-09-19T05:32:12;11.10;;;2.90;;
51566;SDS011;37657;53.182;5.638;2023-09-19T05:34:38;11.52;;;3.10;;
51566;SDS011;37657;53.182;5.638;2023-09-19T05:37:04;6.35;;;2.50;;
51566;SDS011;37657;53.182;5.638;2023-09-19T05:39:32;11.13;;;3.25;;
51566;SDS011;37657;53.182;5.638;2023-09-19T05:41:58;28.65;;;3.22;;
51566;SDS011;37657;53.182;5.638;2023-09-19T05:44:25;3.47;;;2.35;;
51566;SDS011;37657;53.182;5.638;2023-09-19T05:46:50;4.00;;;2.33;;
51566;SDS011;37657;53.182;5.638;2023-09-19T05:49:17;15.15;;;4.30;;
51566;SDS011;37657;53.182;5.638;2023-09-19T05:51:43;5.05;;;2.40;;
51566;SDS011;37657;53.182;5.638;2023-09-19T05:54:08;5.50;;;2.42;;
51566;SDS011;37657;53.182;5.638;2023-09-19T05:56:36;6.70;;;3.63;;
51566;SDS011;37657;53.182;5.638;2023-09-19T05:59:02;11.52;;;3.60;;
51566;SDS011;37657;53.182;5.638;2023-09-19T06:01:29;7.47;;;2.38;;
51566;SDS011;37657;53.182;5.638;2023-09-19T06:03:57;7.80;;;2.97;;
51566;SDS011;37657;53.182;5.638;2023-09-19T06:06:25;13.05;;;3.40;;
51566;SDS011;37657;53.182;5.638;2023-09-19T06:08:51;5.93;;;3.13;;
51566;SDS011;37657;53.182;5.638;2023-09-19T06:11:16;6.63;;;2.58;;
51566;SDS011;37657;53.182;5.638;2023-09-19T06:13:45;8.98;;;3.13;;
51566;SDS011;37657;53.182;5.638;2023-09-19T06:16:12;6.75;;;2.47;;
51566;SDS011;37657;53.182;5.638;2023-09-19T06:18:38;9.73;;;2.30;;
51566;SDS011;37657;53.182;5.638;2023-09-19T06:21:04;5.47;;;2.10;;
51566;SDS011;37657;53.182;5.638;2023-09-19T06:23:33;6.75;;;3.13;;
51566;SDS011;37657;53.182;5.638;2023-09-19T06:26:00;8.75;;;3.53;;
51566;SDS011;37657;53.182;5.638;2023-09-19T06:28:26;4.55;;;2.35;;
51566;SDS011;37657;53.182;5.638;2023-09-19T06:30:53;14.45;;;3.80;;
51566;SDS011;37657;53.182;5.638;2023-09-19T06:33:19;6.68;;;3.15;;
51566;SDS011;37657;53.182;5.638;2023-09-19T06:35:46;9.90;;;3.45;;
51566;SDS011;37657;53.182;5.638;2023-09-19T06:38:13;12.27;;;3.95;;
51566;SDS011;37657;53.182;5.638;2023-09-19T06:40:40;8.23;;;2.75;;
51566;SDS011;37657;53.182;5.638;2023-09-19T06:43:09;5.55;;;2.47;;
51566;SDS011;37657;53.182;5.638;2023-09-19T06:45:35;5.40;;;2.80;;
51566;SDS011;37657;53.182;5.638;2023-09-19T06:48:01;28.50;;;3.47;;
51566;SDS011;37657;53.182;5.638;2023-09-19T06:50:28;7.00;;;3.10;;
51566;SDS011;37657;53.182;5.638;2023-09-19T06:52:58;5.18;;;2.55;;
51566;SDS011;37657;53.182;5.638;2023-09-19T06:55:24;9.60;;;3.08;;
51566;SDS011;37657;53.182;5.638;2023-09-19T06:57:53;8.73;;;2.65;;
51566;SDS011;37657;53.182;5.638;2023-09-19T07:00:21;14.15;;;3.58;;
51566;SDS011;37657;53.182;5.638;2023-09-19T07:02:58;4.43;;;2.47;;
51566;SDS011;37657;53.182;5.638;2023-09-19T07:05:26;7.90;;;3.28;;
51566;SDS011;37657;53.182;5.638;2023-09-19T07:07:55;6.45;;;3.35;;
51566;SDS011;37657;53.182;5.638;2023-09-19T07:10:21;5.13;;;2.33;;
51566;SDS011;37657;53.182;5.638;2023-09-19T07:12:54;10.10;;;4.70;;
51566;SDS011;37657;53.182;5.638;2023-09-19T07:15:28;7.03;;;2.42;;
51566;SDS011;37657;53.182;5.638;2023-09-19T07:17:58;6.47;;;2.25;;
51566;SDS011;37657;53.182;5.638;2023-09-19T07:20:24;11.43;;;3.90;;
51566;SDS011;37657;53.182;5.638;2023-09-19T07:22:56;5.45;;;2.92;;
51566;SDS011;37657;53.182;5.638;2023-09-19T07:25:24;6.57;;;3.33;;
51566;SDS011;37657;53.182;5.638;2023-09-19T07:27:51;8.82;;;3.20;;
51566;SDS011;37657;53.182;5.638;2023-09-19T07:30:16;6.75;;;2.97;;
51566;SDS011;37657;53.182;5.638;2023-09-19T07:32:42;9.13;;;3.67;;
51566;SDS011;37657;53.182;5.638;2023-09-19T07:35:07;9.15;;;2.88;;
51566;SDS011;37657;53.182;5.638;2023-09-19T07:37:33;6.80;;;2.80;;
51566;SDS011;37657;53.182;5.638;2023-09-19T07:40:01;5.80;;;2.95;;
51566;SDS011;37657;53.182;5.638;2023-09-19T07:42:33;7.22;;;2.75;;
51566;SDS011;37657;53.182;5.638;2023-09-19T07:45:00;9.10;;;3.53;;
51566;SDS011;37657;53.182;5.638;2023-09-19T07:47:26;6.63;;;3.08;;
51566;SDS011;37657;53.182;5.638;2023-09-19T07:49:52;11.05;;;3.45;;
51566;SDS011;37657;53.182;5.638;2023-09-19T07:52:18;8.23;;;2.90;;
51566;SDS011;37657;53.182;5.638;2023-09-19T07:54:44;8.13;;;3.00;;
51566;SDS011;37657;53.182;5.638;2023-09-19T07:57:12;7.10;;;3.03;;
51566;SDS011;37657;53.182;5.638;2023-09-19T07:59:40;8.45;;;3.08;;
51566;SDS011;37657;53.182;5.638;2023-09-19T08:02:07;4.68;;;2.60;;
51566;SDS011;37657;53.182;5.638;2023-09-19T08:04:34;5.95;;;2.50;;
51566;SDS011;37657;53.182;5.638;2023-09-19T08:07:00;9.75;;;4.22;;
51566;SDS011;37657;53.182;5.638;2023-09-19T08:09:28;7.30;;;3.35;;
51566;SDS011;37657;53.182;5.638;2023-09-19T08:11:59;7.35;;;2.80;;
51566;SDS011;37657;53.182;5.638;2023-09-19T08:14:28;9.07;;;3.05;;
51566;SDS011;37657;53.182;5.638;2023-09-19T08:16:57;7.75;;;3.35;;
51566;SDS011;37657;53.182;5.638;2023-09-19T08:19:24;4.78;;;2.53;;
51566;SDS011;37657;53.182;5.638;2023-09-19T08:21:55;21.58;;;3.60;;
51566;SDS011;37657;53.182;5.638;2023-09-19T08:24:23;5.88;;;3.22;;
51566;SDS011;37657;53.182;5.638;2023-09-19T08:26:54;8.43;;;3.50;;
51566;SDS011;37657;53.182;5.638;2023-09-19T08:29:22;7.78;;;3.28;;
51566;SDS011;37657;53.182;5.638;2023-09-19T08:31:55;9.32;;;3.08;;
51566;SDS011;37657;53.182;5.638;2023-09-19T08:34:23;7.22;;;2.83;;
51566;SDS011;37657;53.182;5.638;2023-09-19T08:36:50;4.80;;;2.53;;
51566;SDS011;37657;53.182;5.638;2023-09-19T08:39:22;7.20;;;2.95;;
51566;SDS011;37657;53.182;5.638;2023-09-19T08:41:48;6.93;;;2.88;;
51566;SDS011;37657;53.182;5.638;2023-09-19T08:44:14;6.53;;;2.75;;
51566;SDS011;37657;53.182;5.638;2023-09-19T08:46:43;6.60;;;3.08;;
51566;SDS011;37657;53.182;5.638;2023-09-19T08:49:32;6.70;;;2.80;;
51566;SDS011;37657;53.182;5.638;2023-09-19T08:52:25;10.85;;;4.40;;
51566;SDS011;37657;53.182;5.638;2023-09-19T08:54:58;17.60;;;3.42;;
51566;SDS011;37657;53.182;5.638;2023-09-19T08:57:28;7.47;;;3.60;;
51566;SDS011;37657;53.182;5.638;2023-09-19T08:59:55;10.23;;;3.65;;
51566;SDS011;37657;53.182;5.638;2023-09-19T09:02:22;6.28;;;2.58;;
51566;SDS011;37657;53.182;5.638;2023-09-19T09:04:48;10.80;;;2.85;;
51566;SDS011;37657;53.182;5.638;2023-09-19T09:07:15;9.15;;;3.55;;
51566;SDS011;37657;53.182;5.638;2023-09-19T09:09:44;7.03;;;3.15;;
51566;SDS011;37657;53.182;5.638;2023-09-19T09:12:14;8.57;;;3.17;;
51566;SDS011;37657;53.182;5.638;2023-09-19T09:14:40;12.05;;;4.22;;
51566;SDS011;37657;53.182;5.638;2023-09-19T09:17:11;12.13;;;3.38;;
51566;SDS011;37657;53.182;5.638;2023-09-19T09:19:37;6.13;;;2.65;;
51566;SDS011;37657;53.182;5.638;2023-09-19T09:22:09;8.82;;;3.55;;
51566;SDS011;37657;53.182;5.638;2023-09-19T09:24:36;9.98;;;3.50;;
51566;SDS011;37657;53.182;5.638;2023-09-19T09:27:15;8.05;;;3.83;;
51566;SDS011;37657;53.182;5.638;2023-09-19T09:29:43;7.90;;;3.10;;
51566;SDS011;37657;53.182;5.638;2023-09-19T09:32:27;7.60;;;3.50;;
51566;SDS011;37657;53.182;5.638;2023-09-19T09:34:58;11.35;;;4.85;;
51566;SDS011;37657;53.182;5.638;2023-09-19T09:37:25;7.07;;;3.30;;
51566;SDS011;37657;53.182;5.638;2023-09-19T09:39:56;8.63;;;3.42;;
51566;SDS011;37657;53.182;5.638;2023-09-19T09:47:42;17.50;;;4.28;;
51566;SDS011;37657;53.182;5.638;2023-09-19T09:53:03;6.68;;;3.15;;
51566;SDS011;37657;53.182;5.638;2023-09-19T09:58:33;6.25;;;2.75;;
51566;SDS011;37657;53.182;5.638;2023-09-19T10:01:05;7.10;;;3.25;;
51566;SDS011;37657;53.182;5.638;2023-09-19T10:03:35;11.50;;;3.50;;
51566;SDS011;37657;53.182;5.638;2023-09-19T10:06:05;9.93;;;3.65;;
51566;SDS011;37657;53.182;5.638;2023-09-19T10:08:36;7.50;;;3.25;;
51566;SDS011;37657;53.182;5.638;2023-09-19T10:11:12;8.38;;;2.53;;
51566;SDS011;37657;53.182;5.638;2023-09-19T10:13:41;9.18;;;3.53;;
51566;SDS011;37657;53.182;5.638;2023-09-19T10:16:08;8.02;;;2.90;;
51566;SDS011;37657;53.182;5.638;2023-09-19T10:18:36;12.18;;;3.17;;
51566;SDS011;37657;53.182;5.638;2023-09-19T10:21:04;8.40;;;3.70;;
51566;SDS011;37657;53.182;5.638;2023-09-19T10:23:31;6.57;;;3.03;;
51566;SDS011;37657;53.182;5.638;2023-09-19T10:25:59;13.35;;;4.65;;
51566;SDS011;37657;53.182;5.638;2023-09-19T10:28:27;13.95;;;6.47;;
51566;SDS011;37657;53.182;5.638;2023-09-19T10:30:54;12.25;;;6.55;;
51566;SDS011;37657;53.182;5.638;2023-09-19T10:33:22;12.98;;;8.82;;
51566;SDS011;37657;53.182;5.638;2023-09-19T10:35:52;24.52;;;7.97;;
51566;SDS011;37657;53.182;5.638;2023-09-19T10:38:23;19.65;;;7.70;;
51566;SDS011;37657;53.182;5.638;2023-09-19T10:40:50;13.38;;;9.35;;
51566;SDS011;37657;53.182;5.638;2023-09-19T10:43:19;8.35;;;5.43;;
51566;SDS011;37657;53.182;5.638;2023-09-19T10:45:49;12.95;;;5.03;;
51566;SDS011;37657;53.182;5.638;2023-09-19T10:48:17;14.10;;;5.70;;
51566;SDS011;37657;53.182;5.638;2023-09-19T10:50:57;14.70;;;6.70;;
51566;SDS011;37657;53.182;5.638;2023-09-19T10:53:29;9.32;;;5.45;;
51566;SDS011;37657;53.182;5.638;2023-09-19T10:56:08;35.58;;;5.75;;
51566;SDS011;37657;53.182;5.638;2023-09-19T10:58:42;12.05;;;5.18;;
51566;SDS011;37657;53.182;5.638;2023-09-19T11:01:10;9.90;;;3.53;;
51566;SDS011;37657;53.182;5.638;2023-09-19T11:03:43;8.98;;;3.55;;
51566;SDS011;37657;53.182;5.638;2023-09-19T11:08:54;12.97;;;3.70;;
51566;SDS011;37657;53.182;5.638;2023-09-19T11:11:50;16.73;;;6.28;;
51566;SDS011;37657;53.182;5.638;2023-09-19T11:30:47;6.47;;;4.28;;
51566;SDS011;37657;53.182;5.638;2023-09-19T11:36:03;11.27;;;4.35;;
51566;SDS011;37657;53.182;5.638;2023-09-19T11:43:51;7.55;;;3.90;;
51566;SDS011;37657;53.182;5.638;2023-09-19T11:46:18;10.73;;;4.13;;
51566;SDS011;37657;53.182;5.638;2023-09-19T11:48:50;10.27;;;4.07;;
51566;SDS011;37657;53.182;5.638;2023-09-19T11:53:57;14.30;;;5.18;;
51566;SDS011;37657;53.182;5.638;2023-09-19T11:56:26;9.23;;;4.43;;
51566;SDS011;37657;53.182;5.638;2023-09-19T11:58:56;6.15;;;3.78;;
51566;SDS011;37657;53.182;5.638;2023-09-19T12:03:54;9.20;;;4.65;;
51566;SDS011;37657;53.182;5.638;2023-09-19T12:06:22;8.52;;;4.63;;
51566;SDS011;37657;53.182;5.638;2023-09-19T12:08:49;7.20;;;4.13;;
51566;SDS011;37657;53.182;5.638;2023-09-19T12:11:16;7.43;;;3.95;;
51566;SDS011;37657;53.182;5.638;2023-09-19T12:13:46;8.88;;;3.95;;
51566;SDS011;37657;53.182;5.638;2023-09-19T12:18:45;8.38;;;3.45;;
51566;SDS011;37657;53.182;5.638;2023-09-19T12:21:28;8.75;;;3.10;;
51566;SDS011;37657;53.182;5.638;2023-09-19T12:26:43;5.80;;;2.85;;
51566;SDS011;37657;53.182;5.638;2023-09-19T12:29:13;8.73;;;3.92;;
51566;SDS011;37657;53.182;5.638;2023-09-19T12:31:47;5.10;;;2.67;;
51566;SDS011;37657;53.182;5.638;2023-09-19T12:34:26;8.23;;;3.47;;
51566;SDS011;37657;53.182;5.638;2023-09-19T12:37:05;8.45;;;4.18;;
51566;SDS011;37657;53.182;5.638;2023-09-19T12:39:43;9.52;;;4.07;;
51566;SDS011;37657;53.182;5.638;2023-09-19T12:42:14;9.05;;;3.55;;
51566;SDS011;37657;53.182;5.638;2023-09-19T12:44:59;4.13;;;2.72;;
51566;SDS011;37657;53.182;5.638;2023-09-19T12:47:26;7.32;;;3.40;;
51566;SDS011;37657;53.182;5.638;2023-09-19T12:50:07;8.60;;;3.05;;
51566;SDS011;37657;53.182;5.638;2023-09-19T12:52:40;7.72;;;3.30;;
51566;SDS011;37657;53.182;5.638;2023-09-19T12:55:18;10.43;;;3.60;;
51566;SDS011;37657;53.182;5.638;2023-09-19T13:00:41;27.50;;;3.63;;
51566;SDS011;37657;53.182;5.638;2023-09-19T13:06:02;10.35;;;3.17;;
51566;SDS011;37657;53.182;5.638;2023-09-19T13:08:33;6.10;;;3.22;;
51566;SDS011;37657;53.182;5.638;2023-09-19T13:13:37;4.70;;;2.78;;
51566;SDS011;37657;53.182;5.638;2023-09-19T13:16:04;5.97;;;3.40;;
51566;SDS011;37657;53.182;5.638;2023-09-19T13:18:52;7.70;;;3.72;;
51566;SDS011;37657;53.182;5.638;2023-09-19T13:21:55;5.30;;;3.03;;
51566;SDS011;37657;53.182;5.638;2023-09-19T13:24:20;6.35;;;2.88;;
51566;SDS011;37657;53.182;5.638;2023-09-19T13:26:48;20.25;;;3.20;;
51566;SDS011;37657;53.182;5.638;2023-09-19T13:29:14;14.73;;;3.90;;
51566;SDS011;37657;53.182;5.638;2023-09-19T13:31:45;7.95;;;3.80;;
51566;SDS011;37657;53.182;5.638;2023-09-19T13:34:15;4.57;;;3.45;;
51566;SDS011;37657;53.182;5.638;2023-09-19T13:36:42;11.25;;;4.45;;
51566;SDS011;37657;53.182;5.638;2023-09-19T13:39:08;6.57;;;3.28;;
51566;SDS011;37657;53.182;5.638;2023-09-19T13:41:41;9.32;;;4.07;;
51566;SDS011;37657;53.182;5.638;2023-09-19T13:44:08;6.22;;;4.22;;
51566;SDS011;37657;53.182;5.638;2023-09-19T13:46:35;14.68;;;4.75;;
51566;SDS011;37657;53.182;5.638;2023-09-19T13:49:02;9.93;;;4.38;;
51566;SDS011;37657;53.182;5.638;2023-09-19T13:51:31;25.90;;;7.47;;
51566;SDS011;37657;53.182;5.638;2023-09-19T13:53:57;9.00;;;5.28;;
51566;SDS011;37657;53.182;5.638;2023-09-19T13:56:24;15.23;;;5.32;;
51566;SDS011;37657;53.182;5.638;2023-09-19T13:58:52;12.43;;;4.75;;
51566;SDS011;37657;53.182;5.638;2023-09-19T14:01:18;13.05;;;4.53;;
51566;SDS011;37657;53.182;5.638;2023-09-19T14:03:44;9.25;;;4.30;;
51566;SDS011;37657;53.182;5.638;2023-09-19T14:06:16;15.27;;;4.32;;
51566;SDS011;37657;53.182;5.638;2023-09-19T14:08:43;13.95;;;4.90;;
51566;SDS011;37657;53.182;5.638;2023-09-19T14:11:12;9.93;;;4.22;;
51566;SDS011;37657;53.182;5.638;2023-09-19T14:13:39;9.02;;;4.95;;
51566;SDS011;37657;53.182;5.638;2023-09-19T14:16:06;9.13;;;4.10;;
51566;SDS011;37657;53.182;5.638;2023-09-19T14:18:33;9.43;;;4.53;;
51566;SDS011;37657;53.182;5.638;2023-09-19T14:21:03;11.73;;;4.32;;
51566;SDS011;37657;53.182;5.638;2023-09-19T14:23:36;9.90;;;4.72;;
51566;SDS011;37657;53.182;5.638;2023-09-19T14:26:06;14.55;;;5.38;;
51566;SDS011;37657;53.182;5.638;2023-09-19T14:28:32;12.63;;;4.50;;
51566;SDS011;37657;53.182;5.638;2023-09-19T14:31:04;11.15;;;5.32;;
51566;SDS011;37657;53.182;5.638;2023-09-19T14:33:34;10.65;;;4.95;;
51566;SDS011;37657;53.182;5.638;2023-09-19T14:36:03;14.68;;;4.38;;
51566;SDS011;37657;53.182;5.638;2023-09-19T14:38:32;16.17;;;5.15;;
51566;SDS011;37657;53.182;5.638;2023-09-19T14:41:02;11.93;;;5.20;;
51566;SDS011;37657;53.182;5.638;2023-09-19T14:43:28;8.38;;;4.78;;
51566;SDS011;37657;53.182;5.638;2023-09-19T14:46:05;9.52;;;4.93;;
51566;SDS011;37657;53.182;5.638;2023-09-19T14:48:35;8.75;;;4.75;;
51566;SDS011;37657;53.182;5.638;2023-09-19T14:51:04;9.95;;;4.85;;
51566;SDS011;37657;53.182;5.638;2023-09-19T14:53:32;11.15;;;5.32;;
51566;SDS011;37657;53.182;5.638;2023-09-19T14:56:01;12.02;;;5.20;;
51566;SDS011;37657;53.182;5.638;2023-09-19T14:58:28;14.40;;;5.55;;
51566;SDS011;37657;53.182;5.638;2023-09-19T15:01:02;8.35;;;4.55;;
51566;SDS011;37657;53.182;5.638;2023-09-19T15:03:32;12.05;;;5.30;;
51566;SDS011;37657;53.182;5.638;2023-09-19T15:05:59;18.00;;;6.28;;
51566;SDS011;37657;53.182;5.638;2023-09-19T15:08:29;12.95;;;4.95;;
51566;SDS011;37657;53.182;5.638;2023-09-19T15:11:00;14.70;;;6.25;;
51566;SDS011;37657;53.182;5.638;2023-09-19T15:13:30;20.27;;;6.20;;
51566;SDS011;37657;53.182;5.638;2023-09-19T15:16:03;15.23;;;5.70;;
51566;SDS011;37657;53.182;5.638;2023-09-19T15:18:36;15.27;;;6.35;;
51566;SDS011;37657;53.182;5.638;2023-09-19T15:21:04;10.25;;;6.10;;
51566;SDS011;37657;53.182;5.638;2023-09-19T15:23:33;8.55;;;4.65;;
51566;SDS011;37657;53.182;5.638;2023-09-19T15:26:03;18.70;;;6.57;;
51566;SDS011;37657;53.182;5.638;2023-09-19T15:28:30;19.55;;;6.43;;
51566;SDS011;37657;53.182;5.638;2023-09-19T15:31:00;19.17;;;7.03;;
51566;SDS011;37657;53.182;5.638;2023-09-19T15:33:34;10.82;;;4.65;;
51566;SDS011;37657;53.182;5.638;2023-09-19T15:36:03;12.05;;;5.43;;
51566;SDS011;37657;53.182;5.638;2023-09-19T15:41:22;14.95;;;7.40;;
51566;SDS011;37657;53.182;5.638;2023-09-19T15:43:49;23.02;;;6.82;;
51566;SDS011;37657;53.182;5.638;2023-09-19T15:46:14;15.45;;;7.07;;
51566;SDS011;37657;53.182;5.638;2023-09-19T15:48:40;12.35;;;6.50;;
51566;SDS011;37657;53.182;5.638;2023-09-19T15:51:06;11.93;;;5.65;;
51566;SDS011;37657;53.182;5.638;2023-09-19T15:53:41;34.53;;;7.15;;
51566;SDS011;37657;53.182;5.638;2023-09-19T15:56:09;15.30;;;6.90;;
51566;SDS011;37657;53.182;5.638;2023-09-19T15:58:36;15.60;;;5.60;;
51566;SDS011;37657;53.182;5.638;2023-09-19T16:01:05;15.05;;;6.88;;
51566;SDS011;37657;53.182;5.638;2023-09-19T16:03:34;18.95;;;7.05;;
51566;SDS011;37657;53.182;5.638;2023-09-19T16:06:01;11.23;;;5.80;;
51566;SDS011;37657;53.182;5.638;2023-09-19T16:08:32;11.27;;;6.53;;
51566;SDS011;37657;53.182;5.638;2023-09-19T16:10:59;17.85;;;6.03;;